Prairie Rose, North Dakota
Current Conditions -  °F | °C
As of 9:53 PM on Wednesday 26 Nov 2014 (Local Time) from KFAR Reporting Station
Clear Clear  
Wind Chill: -6°   Ceiling: Unl
Heat Index: -6°   Visibility: 10mi
Dew Point: -11°   Wind: 0mph
Humidity: 79%   Direction: NA
Pressure: 30.54"   Gusts: NA
Location:  46.8079°N, 96.8643°W
Report Text: KFAR 270353Z 00000KT 10SM CLR M21/M24 A3054 RMK AO2 SLP370 T12111239
Loading
Personal Weather Stations






























Interactive Weather Map New forecast layout! Learn more

10-Day Weather Forecast

Advertisements
Track Severe Weather on mobile